Bookmark and Share
Track history (hours):
 

Pulpca

Last reported at 2014-Apr-20 08:33 UTC. Time now 2014-Apr-20 11:49 UTC.
Position N 55°48' E 006°47'.

Length 205 m; draft 7.5 m.

Type: Ship (hazmat cat A). MMSI: 245097000.

NotesDate/timePositionNaut miles runAvg speedWind from/ knotsBaromVisibWave heightAir tempDewpointWater temp
2014-Apr-20 08:33N 55°48' E 006°47'10620.6
2014-Apr-20 03:24N 54°17' E 005°11'3820.2
2014-Apr-20 01:33N 53°41' E 004°51'1717.3
2014-Apr-20 00:33N 53°25' E 004°44'1919.4
2014-Apr-19 23:33N 53°08' E 004°28'2019.7
2014-Apr-19 22:33N 52°51' E 004°12'1919.5
2014-Apr-19 21:33N 52°36' E 003°51'2519.5
2014-Apr-19 20:15N 52°15' E 003°28'1520.7
2014-Apr-19 19:33N 52°00' E 003°24'2120.8
2014-Apr-19 18:33N 51°41' E 003°12'1717.2
2014-Apr-19 17:33N 51°25' E 003°04'2019.7
2014-Apr-19 16:33N 51°26' E 003°35'1313.2
2014-Apr-19 15:34N 51°22' E 003°55'1010.4
2014-Apr-19 14:33N 51°24' E 004°12'9 8.6
2014-Apr-19 13:33N 51°16' E 004°17'1 1.1
2014-Apr-19 12:33N 51°16' E 004°15'1 1.1
2014-Apr-19 11:33N 51°15' E 004°14'0 0.0
2014-Apr-19 10:33N 51°15' E 004°14'0 0.0
2014-Apr-19 09:33N 51°15' E 004°14'0 0.0
2014-Apr-19 08:33N 51°15' E 004°14'0 0.0
2014-Apr-19 07:33N 51°15' E 004°14'0 0.0
2014-Apr-19 06:34N 51°15' E 004°14'0 0.0
2014-Apr-19 05:33N 51°15' E 004°14'0 0.0
2014-Apr-19 04:33N 51°15' E 004°14'0 0.0
2014-Apr-19 03:33N 51°15' E 004°14'2 1.8
2014-Apr-19 02:33N 51°16' E 004°17'2 1.6
2014-Apr-19 01:34N 51°17' E 004°19'6 5.8
2014-Apr-19 00:32N 51°21' E 004°14'1010.0
2014-Apr-18 23:33N 51°26' E 003°60'1110.9
2014-Apr-18 22:33N 51°23' E 003°43'1111.3
2014-Apr-18 21:33N 51°25' E 003°25'1515.2
2014-Apr-18 20:34N 51°25' E 003°01'1514.5
2014-Apr-18 19:33N 51°38' E 003°10'8015.9
2014-Apr-18 14:31N 52°54' E 003°55'1616.8
2014-Apr-18 13:33N 53°04' E 004°15'3516.6
2014-Apr-18 11:29N 53°36' E 004°38'18416.4
2014-Apr-18 00:15N 56°15' E 007°19'5316.5
2014-Apr-17 21:04N 57°00' E 008°08'916.8
2014-Apr-17 20:33N 57°06' E 008°20'1716.4
2014-Apr-17 19:33N 57°14' E 008°46'4916.5
2014-Apr-17 16:33N 57°42' E 010°02'1616.1
2014-Apr-17 15:34N 57°47' E 010°31'1414.5
2014-Apr-17 14:34N 57°43' E 010°57'1616.3
2014-Apr-17 13:34N 57°33' E 011°21'1616.3
2014-Apr-17 12:33N 57°18' E 011°34'1716.8
2014-Apr-17 11:33N 57°02' E 011°44'1616.5
2014-Apr-17 10:33N 56°47' E 011°57'1616.1
2014-Apr-17 09:33N 56°33' E 012°12'1616.1
2014-Apr-17 08:34N 56°18' E 012°23'1716.9
2014-Apr-17 07:33N 56°04' E 012°39'1918.5
2014-Apr-17 06:33N 55°45' E 012°42'1212.1
2014-Apr-17 05:33N 55°33' E 012°43'1514.8
2014-Apr-17 04:34N 55°19' E 012°40'1615.7
2014-Apr-17 03:33N 55°15' E 013°07'1515.5
2014-Apr-17 02:33N 55°15' E 013°34'1615.9
2014-Apr-17 01:33N 55°14' E 014°02'1414.5
2014-Apr-17 00:33N 55°20' E 014°25'1615.8
2014-Apr-16 23:33N 55°30' E 014°47'1616.2
2014-Apr-16 22:33N 55°38' E 015°12'1616.3
2014-Apr-16 21:33N 55°47' E 015°36'1616.2
2014-Apr-16 20:34N 55°55' E 016°01'1616.1
2014-Apr-16 19:34N 56°03' E 016°26'266 5.2
2014-Apr-14 16:34N 59°32' E 021°35'3919.4
2014-Apr-14 14:33N 59°37' E 022°51'12 1.7
2014-Apr-14 07:30N 59°49' E 022°56'33519.8
2014-Apr-13 14:33N 55°44' E 015°46'2019.4
2014-Apr-13 13:33N 55°35' E 015°16'2019.6
2014-Apr-13 12:33N 55°25' E 014°46'1919.3
2014-Apr-13 11:33N 55°12' E 014°21'1919.3
2014-Apr-13 10:33N 55°11' E 013°47'2019.6
2014-Apr-13 09:32N 55°12' E 013°13'1919.3
2014-Apr-13 08:33N 55°17' E 012°41'1615.6
2014-Apr-13 07:33N 55°33' E 012°42'1110.7
2014-Apr-13 06:34N 55°43' E 012°41'1919.2
2014-Apr-13 05:33N 56°03' E 012°39'2019.7
2014-Apr-13 04:33N 56°20' E 012°21'2120.0
2014-Apr-13 03:30N 56°39' E 012°06'1920.3
2014-Apr-13 02:33N 56°55' E 011°47'2120.2
2014-Apr-13 01:33N 57°14' E 011°33'2019.9
2014-Apr-13 00:33N 57°32' E 011°16'2020.1
2014-Apr-12 23:34N 57°45' E 010°48'2121.2
2014-Apr-12 22:33N 57°43' E 010°08'20920.7
2014-Apr-12 12:27N 55°05' E 006°02'2020.8
2014-Apr-12 11:31N 54°48' E 005°44'2120.9
2014-Apr-12 10:30N 54°30' E 005°26'2120.9
2014-Apr-12 09:28N 54°12' E 005°06'1920.5
2014-Apr-12 08:33N 53°54' E 004°55'2121.0
2014-Apr-12 07:33N 53°33' E 004°48'2120.9
2014-Apr-12 06:33N 53°14' E 004°35'2421.1
2014-Apr-12 05:26N 52°53' E 004°16'1921.3
2014-Apr-12 04:33N 52°39' E 003°57'2121.3
2014-Apr-12 03:33N 52°23' E 003°34'2221.4
2014-Apr-12 02:33N 52°02' E 003°25'2121.4
2014-Apr-12 01:33N 51°42' E 003°12'1918.7
2014-Apr-12 00:33N 51°25' E 003°03'1919.4
2014-Apr-11 23:33N 51°26' E 003°34'1313.0
2014-Apr-11 22:33N 51°21' E 003°54'10 9.9
2014-Apr-11 21:33N 51°23' E 004°09'8 8.5
2014-Apr-11 20:33N 51°17' E 004°19'2 2.0
2014-Apr-11 19:33N 51°16' E 004°17'2 1.7
2014-Apr-11 18:33N 51°15' E 004°14'0 0.1
2014-Apr-11 17:28N 51°15' E 004°14'0 0.0
2014-Apr-11 16:28N 51°15' E 004°14'0 0.0
2014-Apr-11 15:31N 51°15' E 004°14'0 0.0
2014-Apr-11 14:28N 51°15' E 004°14'0 0.0
2014-Apr-11 13:31N 51°15' E 004°14'0 0.0
2014-Apr-11 12:31N 51°15' E 004°14'0 0.0
2014-Apr-11 11:31N 51°15' E 004°14'0 0.0
2014-Apr-11 10:31N 51°15' E 004°14'0 0.0
2014-Apr-11 09:31N 51°15' E 004°14'0 0.0
2014-Apr-11 08:31N 51°15' E 004°14'0 0.0
2014-Apr-11 07:31N 51°15' E 004°14'0 0.0
2014-Apr-11 06:31N 51°15' E 004°14'0 0.0
2014-Apr-11 05:28N 51°15' E 004°14'0 0.0
2014-Apr-11 04:31N 51°15' E 004°14'0 0.0
2014-Apr-11 03:31N 51°15' E 004°14'0 0.0
2014-Apr-11 02:31N 51°15' E 004°14'0 0.0
2014-Apr-11 01:31N 51°15' E 004°14'0 0.0
2014-Apr-11 00:31N 51°15' E 004°14'0 0.0
2014-Apr-10 23:31N 51°15' E 004°14'0 0.0
2014-Apr-10 22:31N 51°15' E 004°14'0 0.0
2014-Apr-10 21:31N 51°15' E 004°14'0 0.0
2014-Apr-10 20:31N 51°15' E 004°14'0 0.0
2014-Apr-10 19:31N 51°15' E 004°14'0 0.0
2014-Apr-10 18:31N 51°15' E 004°14'0 0.0
2014-Apr-10 17:31N 51°15' E 004°14'0 0.0
2014-Apr-10 16:31N 51°15' E 004°14'0 0.0
2014-Apr-10 15:31N 51°15' E 004°14'0 0.0
2014-Apr-10 14:31N 51°15' E 004°14'0 0.0
2014-Apr-10 13:31N 51°15' E 004°14'0 0.0
2014-Apr-10 12:25N 51°15' E 004°14'0 0.0
2014-Apr-10 11:31N 51°15' E 004°14'0 0.0
2014-Apr-10 10:31N 51°15' E 004°14'0 0.0
2014-Apr-10 09:31N 51°15' E 004°14'  

Dump ship's entire track history

sailing weather and tide predictions

Pulpca — PHMT — position and weather